createdAt,value
2023-02-22T19:45:44.849Z,11.10
2023-02-22T19:48:11.321Z,11.24
2023-02-22T19:50:49.064Z,11.15
2023-02-22T19:53:15.929Z,11.18
2023-02-22T19:55:42.376Z,10.99
2023-02-22T19:58:09.153Z,11.24
2023-02-22T20:00:36.112Z,11.10
2023-02-22T20:03:06.003Z,10.25
2023-02-22T20:05:33.536Z,11.31
2023-02-22T20:07:59.983Z,11.15
2023-02-22T20:10:26.447Z,11.41
2023-02-22T20:12:52.958Z,11.22
2023-02-22T20:15:19.345Z,11.42
2023-02-22T20:17:50.232Z,10.96
2023-02-22T20:20:17.440Z,11.20
2023-02-22T20:22:44.574Z,11.02
2023-02-22T20:25:11.178Z,10.72
2023-02-22T20:27:37.839Z,11.25
2023-02-22T20:30:04.400Z,11.44
2023-02-22T20:32:32.286Z,11.50
2023-02-22T20:34:58.785Z,11.26
2023-02-22T20:37:25.158Z,11.74
2023-02-22T20:39:51.523Z,11.83
2023-02-22T20:42:17.927Z,11.87
2023-02-22T20:44:49.385Z,11.74
2023-02-22T20:47:15.797Z,11.34
2023-02-22T20:49:42.194Z,11.48
2023-02-22T20:52:08.579Z,11.57
2023-02-22T20:54:35.951Z,11.46
2023-02-22T20:57:02.387Z,11.50
2023-02-22T20:59:29.165Z,11.49
2023-02-22T21:01:55.670Z,11.36
2023-02-22T21:04:22.187Z,10.83
2023-02-22T21:06:48.591Z,10.85
2023-02-22T21:09:15.814Z,10.32
2023-02-22T21:11:42.371Z,10.76
2023-02-22T21:14:09.957Z,10.29
2023-02-22T21:16:36.887Z,10.52
2023-02-22T21:19:04.487Z,10.38
2023-02-22T21:21:31.708Z,10.52
2023-02-22T21:24:01.648Z,11.16
2023-02-22T21:26:29.561Z,11.33
2023-02-22T21:28:57.851Z,11.23
2023-02-22T21:31:24.971Z,11.10
2023-02-22T21:33:52.701Z,11.05
2023-02-22T21:36:19.712Z,10.90
2023-02-22T21:38:46.984Z,10.60
2023-02-22T21:41:13.686Z,10.99
2023-02-22T21:43:40.108Z,10.67
2023-02-22T21:46:07.154Z,10.51
2023-02-22T21:48:34.849Z,10.49
2023-02-22T21:51:08.818Z,10.35
2023-02-22T21:53:35.385Z,10.45
2023-02-22T21:56:05.394Z,10.44
2023-02-22T21:58:31.832Z,10.61
2023-02-22T22:01:03.540Z,10.62
2023-02-22T22:03:29.940Z,10.41
2023-02-22T22:05:56.567Z,10.33
2023-02-22T22:08:24.947Z,10.28
2023-02-22T22:10:51.839Z,10.36
2023-02-22T22:13:18.245Z,10.24
2023-02-22T22:15:44.670Z,10.06
2023-02-22T22:18:11.666Z,10.25
2023-02-22T22:20:38.997Z,10.25
2023-02-22T22:23:06.476Z,10.24
2023-02-22T22:25:33.240Z,10.25
2023-02-22T22:28:00.135Z,10.21
2023-02-22T22:30:26.762Z,10.27
2023-02-22T22:32:53.244Z,10.26
2023-02-22T22:35:19.787Z,10.15
2023-02-22T22:37:51.114Z,10.20
2023-02-22T22:40:17.671Z,10.19
2023-02-22T22:42:45.323Z,10.24
2023-02-22T22:45:12.086Z,10.21
2023-02-22T22:47:38.866Z,10.01
2023-02-22T22:50:07.171Z,10.01
2023-02-22T22:52:35.154Z,9.96
2023-02-22T22:55:02.055Z,10.09
2023-02-22T22:57:28.522Z,10.13
2023-02-22T22:59:54.962Z,10.01
2023-02-22T23:02:21.363Z,10.02
2023-02-22T23:04:51.541Z,9.95
2023-02-22T23:07:17.955Z,10.18
2023-02-22T23:09:44.329Z,10.22
2023-02-22T23:12:16.579Z,10.26
2023-02-22T23:14:46.861Z,10.30
2023-02-22T23:17:15.815Z,10.34
2023-02-22T23:19:42.775Z,10.41
2023-02-22T23:22:09.249Z,10.37
2023-02-22T23:24:36.660Z,10.34
2023-02-22T23:27:07.016Z,10.08
2023-02-22T23:29:34.361Z,10.35
2023-02-22T23:32:00.822Z,10.37
2023-02-22T23:34:28.932Z,10.36
2023-02-22T23:36:55.444Z,10.41
2023-02-22T23:39:22.453Z,10.31
2023-02-22T23:41:52.462Z,10.52
2023-02-22T23:44:19.730Z,10.46
2023-02-22T23:46:48.378Z,10.39
2023-02-22T23:49:19.894Z,10.46
2023-02-22T23:51:46.252Z,10.44
2023-02-22T23:54:13.963Z,10.40
2023-02-22T23:56:47.021Z,10.48
2023-02-22T23:59:13.782Z,10.47
